CSZ0941 ZULS-ZUTF
Flight info
| Callsign | CSZ0941 |
|---|---|
| Flight time | N/A |
| Altitude | 39100 |
| Route | LXA W500 DM W9 LADUP LADUP8M |
| Aircraft | A339/H-SADE1E2E3GHIJ3J5M1P2RWXY/LB2D1 1667 |
Departure
| Time | 2026-04-18 12:27 |
|---|---|
| Airport | Lhasa Gonggar International Airport (ZULS) |
Arrival
| Time | N/A |
|---|---|
| Airport | Chengdu Tianfu International Airport (ZUTF) |
| Time | Latitude | Longitude | Altitude | Speed | Heading |
|---|---|---|---|---|---|
| 2026-04-18 12:15 | 29.29450 | 90.89990 | 11746 ft | 0 kts | 179° |
| 2026-04-18 12:17 | 29.29464 | 90.89990 | 11745 ft | 2 kts | 191° |
| 2026-04-18 12:17 | 29.29479 | 90.89996 | 11745 ft | 2 kts | 204° |
| 2026-04-18 12:17 | 29.29492 | 90.90004 | 11745 ft | 2 kts | 216° |
| 2026-04-18 12:18 | 29.29503 | 90.90015 | 11745 ft | 2 kts | 229° |
| 2026-04-18 12:18 | 29.29512 | 90.90028 | 11745 ft | 2 kts | 240° |
| 2026-04-18 12:18 | 29.29519 | 90.90044 | 11745 ft | 2 kts | 252° |
| 2026-04-18 12:18 | 29.29522 | 90.90061 | 11746 ft | 2 kts | 265° |
| 2026-04-18 12:19 | 29.29522 | 90.90068 | 11746 ft | 0 kts | 270° |
| 2026-04-18 12:19 | 29.29522 | 90.90045 | 11745 ft | 3 kts | 271° |
| 2026-04-18 12:19 | 29.29530 | 90.90021 | 11745 ft | 3 kts | 306° |
| 2026-04-18 12:19 | 29.29550 | 90.90005 | 11744 ft | 3 kts | 338° |
| 2026-04-18 12:20 | 29.29570 | 90.90002 | 11743 ft | 3 kts | 2° |
| 2026-04-18 12:20 | 29.29594 | 90.89994 | 11743 ft | 3 kts | 331° |
| 2026-04-18 12:20 | 29.29613 | 90.89974 | 11742 ft | 3 kts | 307° |
| 2026-04-18 12:20 | 29.29623 | 90.89947 | 11742 ft | 3 kts | 283° |
| 2026-04-18 12:21 | 29.29624 | 90.89929 | 11742 ft | 0 kts | 269° |
| 2026-04-18 12:21 | 29.29624 | 90.89928 | 11742 ft | 0 kts | 269° |
| 2026-04-18 12:23 | 29.29623 | 90.89914 | 11742 ft | 3 kts | 269° |
| 2026-04-18 12:23 | 29.29622 | 90.89867 | 11742 ft | 8 kts | 269° |
| 2026-04-18 12:23 | 29.29622 | 90.89784 | 11743 ft | 13 kts | 269° |
| 2026-04-18 12:23 | 29.29619 | 90.89654 | 11744 ft | 18 kts | 269° |
| 2026-04-18 12:24 | 29.29616 | 90.89502 | 11745 ft | 20 kts | 269° |
| 2026-04-18 12:24 | 29.29613 | 90.89336 | 11747 ft | 21 kts | 269° |
| 2026-04-18 12:24 | 29.29632 | 90.89201 | 11747 ft | 11 kts | 314° |
| 2026-04-18 12:24 | 29.29699 | 90.89186 | 11749 ft | 9 kts | 2° |
| 2026-04-18 12:25 | 29.29762 | 90.89195 | 11751 ft | 5 kts | 30° |
| 2026-04-18 12:25 | 29.29778 | 90.89243 | 11751 ft | 7 kts | 81° |
| 2026-04-18 12:25 | 29.29780 | 90.89292 | 11750 ft | 0 kts | 89° |
| 2026-04-18 12:26 | 29.29781 | 90.89392 | 11748 ft | 38 kts | 89° |
| 2026-04-18 12:26 | 29.29789 | 90.89923 | 11742 ft | 93 kts | 89° |
| 2026-04-18 12:27 | 29.29802 | 90.90855 | 11741 ft | 140 kts | 89° |
| 2026-04-18 12:27 | 29.29822 | 90.92148 | 11738 ft | 180 kts | 89° |
| 2026-04-18 12:27 | 29.29849 | 90.93696 | 11865 ft | 202 kts | 90° |
| 2026-04-18 12:27 | 29.29880 | 90.95298 | 12426 ft | 200 kts | 89° |
| 2026-04-18 12:28 | 29.29928 | 90.96883 | 12999 ft | 201 kts | 92° |
| 2026-04-18 12:28 | 29.29863 | 90.98487 | 13484 ft | 205 kts | 95° |
| 2026-04-18 12:28 | 29.29767 | 91.00176 | 13818 ft | 219 kts | 96° |
| 2026-04-18 12:28 | 29.29640 | 91.01952 | 14116 ft | 235 kts | 97° |
| 2026-04-18 12:29 | 29.29513 | 91.03870 | 14510 ft | 245 kts | 96° |
| 2026-04-18 12:29 | 29.29396 | 91.05822 | 15072 ft | 249 kts | 96° |
| 2026-04-18 12:29 | 29.29281 | 91.07843 | 15519 ft | 259 kts | 96° |
| 2026-04-18 12:29 | 29.29162 | 91.09969 | 15847 ft | 277 kts | 96° |
| 2026-04-18 12:30 | 29.29035 | 91.12295 | 16198 ft | 295 kts | 96° |
| 2026-04-18 12:30 | 29.28907 | 91.14699 | 16666 ft | 306 kts | 96° |
| 2026-04-18 12:30 | 29.28782 | 91.17122 | 17226 ft | 309 kts | 96° |
| 2026-04-18 12:30 | 29.28655 | 91.19575 | 17803 ft | 311 kts | 96° |
| 2026-04-18 12:31 | 29.28525 | 91.22060 | 18378 ft | 313 kts | 97° |
| 2026-04-18 12:31 | 29.28398 | 91.24500 | 18855 ft | 305 kts | 97° |
| 2026-04-18 12:31 | 29.28270 | 91.26930 | 19563 ft | 301 kts | 97° |
| 2026-04-18 12:31 | 29.28149 | 91.29259 | 20462 ft | 290 kts | 98° |
| 2026-04-18 12:32 | 29.28032 | 91.31512 | 21255 ft | 282 kts | 99° |
| 2026-04-18 12:32 | 29.27904 | 91.33807 | 21678 ft | 288 kts | 99° |
| 2026-04-18 12:32 | 29.27772 | 91.36134 | 22066 ft | 295 kts | 99° |
| 2026-04-18 12:32 | 29.27641 | 91.38482 | 22502 ft | 299 kts | 99° |
| 2026-04-18 12:33 | 29.27508 | 91.40873 | 22939 ft | 303 kts | 99° |
| 2026-04-18 12:33 | 29.27375 | 91.43296 | 23360 ft | 307 kts | 99° |
| 2026-04-18 12:33 | 29.27239 | 91.45752 | 23762 ft | 311 kts | 99° |
| 2026-04-18 12:33 | 29.27102 | 91.48233 | 24154 ft | 316 kts | 99° |
| 2026-04-18 12:34 | 29.26962 | 91.50759 | 24543 ft | 320 kts | 99° |
| 2026-04-18 12:34 | 29.26819 | 91.53323 | 24930 ft | 324 kts | 99° |
| 2026-04-18 12:34 | 29.26674 | 91.55917 | 25315 ft | 328 kts | 99° |
| 2026-04-18 12:34 | 29.26528 | 91.58525 | 25690 ft | 332 kts | 99° |
| 2026-04-18 12:35 | 29.26381 | 91.61160 | 26063 ft | 336 kts | 99° |
| 2026-04-18 12:35 | 29.26228 | 91.63863 | 26428 ft | 340 kts | 99° |
| 2026-04-18 12:35 | 29.26076 | 91.66558 | 26784 ft | 343 kts | 100° |
| 2026-04-18 12:35 | 29.25920 | 91.69282 | 27121 ft | 347 kts | 100° |
| 2026-04-18 12:36 | 29.25761 | 91.72073 | 27443 ft | 351 kts | 100° |
| 2026-04-18 12:36 | 29.25600 | 91.74891 | 27770 ft | 355 kts | 100° |
| 2026-04-18 12:36 | 29.25473 | 91.77771 | 28100 ft | 360 kts | 98° |
| 2026-04-18 12:36 | 29.25396 | 91.80659 | 28426 ft | 363 kts | 97° |
| 2026-04-18 12:37 | 29.25329 | 91.83533 | 28734 ft | 367 kts | 97° |
| 2026-04-18 12:37 | 29.25259 | 91.86494 | 29028 ft | 371 kts | 97° |
| 2026-04-18 12:37 | 29.25190 | 91.89426 | 29324 ft | 374 kts | 97° |
| 2026-04-18 12:37 | 29.25117 | 91.92427 | 29629 ft | 378 kts | 97° |
| 2026-04-18 12:38 | 29.25042 | 91.95447 | 29922 ft | 381 kts | 97° |
| 2026-04-18 12:38 | 29.24964 | 91.98492 | 30200 ft | 385 kts | 97° |
| 2026-04-18 12:38 | 29.24886 | 92.01531 | 30471 ft | 388 kts | 97° |
| 2026-04-18 12:38 | 29.24806 | 92.04629 | 30751 ft | 391 kts | 96° |
| 2026-04-18 12:39 | 29.24723 | 92.07763 | 31011 ft | 395 kts | 96° |
| 2026-04-18 12:39 | 29.24639 | 92.10908 | 31274 ft | 398 kts | 96° |
| 2026-04-18 12:39 | 29.24555 | 92.14110 | 31551 ft | 401 kts | 96° |
| 2026-04-18 12:39 | 29.24470 | 92.17269 | 31813 ft | 404 kts | 96° |
| 2026-04-18 12:40 | 29.24381 | 92.20522 | 32059 ft | 408 kts | 95° |
| 2026-04-18 12:40 | 29.24295 | 92.23769 | 32313 ft | 411 kts | 95° |
| 2026-04-18 12:40 | 29.24211 | 92.27044 | 32575 ft | 414 kts | 95° |
| 2026-04-18 12:40 | 29.24125 | 92.30338 | 32811 ft | 417 kts | 95° |
| 2026-04-18 12:41 | 29.24038 | 92.33652 | 33058 ft | 420 kts | 95° |
| 2026-04-18 12:41 | 29.23948 | 92.36969 | 33307 ft | 422 kts | 94° |
| 2026-04-18 12:41 | 29.23855 | 92.40339 | 33534 ft | 426 kts | 94° |
| 2026-04-18 12:41 | 29.23761 | 92.43754 | 33772 ft | 429 kts | 94° |
| 2026-04-18 12:42 | 29.23667 | 92.47147 | 34012 ft | 431 kts | 94° |
| 2026-04-18 12:42 | 29.23570 | 92.50603 | 34245 ft | 434 kts | 94° |
| 2026-04-18 12:42 | 29.23474 | 92.54065 | 34502 ft | 436 kts | 94° |
| 2026-04-18 12:42 | 29.23375 | 92.57540 | 34770 ft | 437 kts | 92° |
| 2026-04-18 12:43 | 29.23627 | 92.61026 | 34978 ft | 441 kts | 75° |
| 2026-04-18 12:43 | 29.24700 | 92.64260 | 35168 ft | 440 kts | 56° |
| 2026-04-18 12:43 | 29.26436 | 92.67117 | 35390 ft | 437 kts | 48° |
| 2026-04-18 12:43 | 29.28282 | 92.69849 | 35598 ft | 439 kts | 50° |
| 2026-04-18 12:44 | 29.30060 | 92.72716 | 35792 ft | 443 kts | 53° |
| 2026-04-18 12:44 | 29.31727 | 92.75693 | 35992 ft | 445 kts | 56° |
| 2026-04-18 12:44 | 29.33301 | 92.78708 | 36197 ft | 447 kts | 57° |
| 2026-04-18 12:44 | 29.34874 | 92.81836 | 36402 ft | 449 kts | 58° |
| 2026-04-18 12:45 | 29.36416 | 92.84953 | 36620 ft | 451 kts | 58° |
| 2026-04-18 12:45 | 29.37954 | 92.88081 | 36845 ft | 453 kts | 58° |
| 2026-04-18 12:45 | 29.39498 | 92.91213 | 37060 ft | 455 kts | 58° |
| 2026-04-18 12:45 | 29.41060 | 92.94381 | 37272 ft | 457 kts | 58° |
| 2026-04-18 12:46 | 29.42627 | 92.97564 | 37490 ft | 458 kts | 58° |
| 2026-04-18 12:46 | 29.44197 | 93.00749 | 37696 ft | 460 kts | 58° |
| 2026-04-18 12:46 | 29.45779 | 93.03961 | 37908 ft | 461 kts | 58° |
| 2026-04-18 12:46 | 29.47364 | 93.07185 | 38097 ft | 463 kts | 59° |
| 2026-04-18 12:47 | 29.48960 | 93.10437 | 38296 ft | 464 kts | 59° |
| 2026-04-18 12:47 | 29.50549 | 93.13677 | 38482 ft | 466 kts | 59° |
| 2026-04-18 12:47 | 29.52142 | 93.16925 | 38665 ft | 467 kts | 59° |
| 2026-04-18 12:47 | 29.53744 | 93.20202 | 38849 ft | 468 kts | 59° |
| 2026-04-18 12:48 | 29.55369 | 93.23522 | 38928 ft | 473 kts | 59° |
| 2026-04-18 12:48 | 29.58623 | 93.30185 | 38937 ft | 485 kts | 59° |
| 2026-04-18 12:49 | 29.61871 | 93.37044 | 38939 ft | 497 kts | 59° |
| 2026-04-18 12:49 | 29.65313 | 93.44028 | 38937 ft | 509 kts | 58° |
| 2026-04-18 12:50 | 29.68867 | 93.51244 | 38939 ft | 521 kts | 59° |
| 2026-04-18 12:50 | 29.72462 | 93.58633 | 38938 ft | 532 kts | 59° |
| 2026-04-18 12:51 | 29.76138 | 93.66225 | 38935 ft | 540 kts | 59° |
| 2026-04-18 12:51 | 29.79869 | 93.73953 | 38935 ft | 546 kts | 59° |
| 2026-04-18 12:52 | 29.83531 | 93.81546 | 38934 ft | 547 kts | 60° |
| 2026-04-18 12:52 | 29.87097 | 93.89291 | 38935 ft | 547 kts | 63° |
| 2026-04-18 12:53 | 29.89969 | 93.97439 | 38933 ft | 548 kts | 71° |
| 2026-04-18 12:53 | 29.91985 | 94.05881 | 38935 ft | 548 kts | 77° |
| 2026-04-18 12:54 | 29.93649 | 94.14468 | 38934 ft | 548 kts | 78° |
| 2026-04-18 12:54 | 29.95295 | 94.23007 | 38934 ft | 548 kts | 78° |
| 2026-04-18 12:55 | 29.96967 | 94.31578 | 38934 ft | 548 kts | 77° |
| 2026-04-18 12:55 | 29.98639 | 94.40138 | 38933 ft | 548 kts | 77° |
| 2026-04-18 12:56 | 30.00317 | 94.48728 | 38934 ft | 548 kts | 77° |
| 2026-04-18 12:56 | 30.01980 | 94.57291 | 38932 ft | 549 kts | 77° |
| 2026-04-18 12:57 | 30.03639 | 94.65855 | 38932 ft | 548 kts | 78° |
| 2026-04-18 12:57 | 30.05315 | 94.74539 | 38933 ft | 548 kts | 78° |
| 2026-04-18 12:58 | 30.06963 | 94.83131 | 38935 ft | 548 kts | 78° |
| 2026-04-18 12:58 | 30.08594 | 94.91677 | 38934 ft | 546 kts | 78° |
| 2026-04-18 12:59 | 30.10227 | 95.00198 | 38936 ft | 544 kts | 77° |
| 2026-04-18 12:59 | 30.11956 | 95.08858 | 38934 ft | 544 kts | 76° |
| 2026-04-18 13:00 | 30.13655 | 95.17336 | 38934 ft | 543 kts | 77° |
| 2026-04-18 13:00 | 30.15343 | 95.25847 | 38935 ft | 543 kts | 76° |
| 2026-04-18 13:01 | 30.17024 | 95.34373 | 38935 ft | 543 kts | 76° |
| 2026-04-18 13:01 | 30.18683 | 95.42826 | 38934 ft | 543 kts | 76° |
| 2026-04-18 13:02 | 30.20352 | 95.51366 | 38932 ft | 543 kts | 76° |
| 2026-04-18 13:02 | 30.22023 | 95.59933 | 38934 ft | 543 kts | 77° |
| 2026-04-18 13:03 | 30.23690 | 95.68529 | 38932 ft | 543 kts | 77° |
| 2026-04-18 13:03 | 30.26179 | 95.81420 | 38935 ft | 543 kts | 77° |
| 2026-04-18 13:04 | 30.27814 | 95.89932 | 38933 ft | 543 kts | 77° |
| 2026-04-18 13:04 | 30.29444 | 95.98463 | 38934 ft | 543 kts | 77° |
| 2026-04-18 13:05 | 30.31111 | 96.06968 | 38935 ft | 543 kts | 76° |
| 2026-04-18 13:05 | 30.32837 | 96.15500 | 38934 ft | 543 kts | 76° |
| 2026-04-18 13:06 | 30.34551 | 96.24026 | 38935 ft | 543 kts | 77° |
| 2026-04-18 13:06 | 30.36256 | 96.32591 | 38934 ft | 543 kts | 76° |
| 2026-04-18 13:07 | 30.37958 | 96.41175 | 38933 ft | 543 kts | 76° |
| 2026-04-18 13:07 | 30.39650 | 96.49728 | 38936 ft | 543 kts | 76° |
| 2026-04-18 13:08 | 30.41335 | 96.58296 | 38935 ft | 544 kts | 76° |
| 2026-04-18 13:08 | 30.43008 | 96.66825 | 38933 ft | 543 kts | 77° |
| 2026-04-18 13:09 | 30.44704 | 96.75500 | 38932 ft | 544 kts | 77° |
| 2026-04-18 13:09 | 30.46364 | 96.84049 | 38935 ft | 543 kts | 77° |
| 2026-04-18 13:10 | 30.48008 | 96.92529 | 38934 ft | 543 kts | 77° |
| 2026-04-18 13:10 | 30.49660 | 97.01093 | 38933 ft | 543 kts | 77° |
| 2026-04-18 13:11 | 30.51023 | 97.09671 | 38934 ft | 544 kts | 83° |
| 2026-04-18 13:11 | 30.51549 | 97.18407 | 38933 ft | 543 kts | 91° |
| 2026-04-18 13:12 | 30.51191 | 97.27098 | 38935 ft | 541 kts | 97° |
| 2026-04-18 13:12 | 30.50437 | 97.35777 | 38934 ft | 541 kts | 98° |
| 2026-04-18 13:13 | 30.49679 | 97.44443 | 38935 ft | 541 kts | 98° |
| 2026-04-18 13:13 | 30.48941 | 97.53136 | 38935 ft | 541 kts | 98° |
| 2026-04-18 13:14 | 30.48212 | 97.61753 | 38935 ft | 540 kts | 98° |
| 2026-04-18 13:14 | 30.47461 | 97.70573 | 38932 ft | 541 kts | 98° |
| 2026-04-18 13:15 | 30.46718 | 97.79215 | 38934 ft | 541 kts | 98° |
| 2026-04-18 13:15 | 30.45972 | 97.87843 | 38933 ft | 541 kts | 98° |
| 2026-04-18 13:16 | 30.45216 | 97.96516 | 38935 ft | 541 kts | 98° |
| 2026-04-18 13:16 | 30.44450 | 98.05209 | 38934 ft | 541 kts | 98° |
| 2026-04-18 13:17 | 30.43683 | 98.13862 | 38934 ft | 540 kts | 98° |
| 2026-04-18 13:17 | 30.42929 | 98.22514 | 38934 ft | 542 kts | 97° |
| 2026-04-18 13:18 | 30.42265 | 98.31207 | 38934 ft | 541 kts | 97° |
| 2026-04-18 13:18 | 30.41606 | 98.39855 | 38935 ft | 542 kts | 97° |
| 2026-04-18 13:19 | 30.40930 | 98.48531 | 38935 ft | 541 kts | 97° |
| 2026-04-18 13:19 | 30.40245 | 98.57182 | 38934 ft | 541 kts | 97° |
| 2026-04-18 13:20 | 30.39550 | 98.65859 | 38934 ft | 541 kts | 98° |